Dickey, North Dakota
Current Conditions -  °F | °C
As of 1:56 AM on Wednesday 22 Oct 2014 (Local Time) from KJMS Reporting Station
Clear Clear  
Wind Chill: 60°   Ceiling: Unl
Heat Index: 60°   Visibility: 10mi
Dew Point: 44°   Wind: 17mph
Humidity: 55%   Direction: 160°SSE
Pressure: 29.77"   Gusts: 24mph
Location:  46.54°N, 98.47°W
Report Text: KJMS 220656Z AUTO 16015G21KT 10SM CLR 16/07 A2977 RMK AO2 SLP077 T01560067
Loading
Personal Weather Stations






























Interactive Weather Map New forecast layout! Learn more

10-Day Weather Forecast

Advertisements
Track Severe Weather on mobile